createdAt,value
2018-08-10T00:01:49.213Z,99.90
2018-08-10T00:04:17.948Z,99.90
2018-08-10T00:06:46.639Z,99.90
2018-08-10T00:09:15.331Z,99.90
2018-08-10T00:11:43.944Z,99.90
2018-08-10T00:14:12.607Z,99.90
2018-08-10T00:16:41.392Z,99.90
2018-08-10T00:19:10.040Z,99.90
2018-08-10T00:21:38.630Z,99.90
2018-08-10T00:24:07.379Z,99.90
2018-08-10T00:26:36.009Z,99.90
2018-08-10T00:29:04.713Z,99.90
2018-08-10T00:31:33.384Z,99.70
2018-08-10T00:34:02.051Z,99.50
2018-08-10T00:36:30.605Z,99.60
2018-08-10T00:38:59.417Z,99.40
2018-08-10T00:41:28.092Z,99.20
2018-08-10T00:43:56.760Z,99.10
2018-08-10T00:46:25.298Z,99.30
2018-08-10T00:48:53.951Z,99.40
2018-08-10T00:51:22.542Z,99.10
2018-08-10T00:53:51.212Z,99.20
2018-08-10T00:56:19.809Z,99.40
2018-08-10T00:58:48.495Z,99.20
2018-08-10T01:01:17.123Z,99.20
2018-08-10T01:03:45.727Z,99.00
2018-08-10T01:06:25.266Z,99.00
2018-08-10T01:08:53.948Z,99.20
2018-08-10T01:11:22.607Z,99.30
2018-08-10T01:13:51.248Z,99.30
2018-08-10T01:16:19.865Z,99.20
2018-08-10T01:18:48.502Z,99.00
2018-08-10T01:21:17.162Z,98.90
2018-08-10T01:23:45.841Z,98.50
2018-08-10T01:26:14.493Z,98.10
2018-08-10T01:28:43.282Z,97.10
2018-08-10T01:31:11.899Z,96.80
2018-08-10T01:33:40.714Z,96.40
2018-08-10T01:36:09.379Z,96.30
2018-08-10T01:38:37.993Z,96.10
2018-08-10T01:41:06.609Z,96.40
2018-08-10T01:43:35.197Z,96.50
2018-08-10T01:46:03.810Z,96.50
2018-08-10T01:48:32.385Z,96.40
2018-08-10T01:51:00.949Z,96.30
2018-08-10T01:53:29.551Z,96.30
2018-08-10T01:55:58.127Z,96.20
2018-08-10T01:58:26.815Z,96.20
2018-08-10T02:00:55.333Z,96.20
2018-08-10T02:03:24.023Z,96.30
2018-08-10T02:05:52.635Z,96.00
2018-08-10T02:08:21.279Z,96.10
2018-08-10T02:10:49.869Z,96.20
2018-08-10T02:13:18.477Z,96.50
2018-08-10T02:15:47.080Z,96.40
2018-08-10T02:18:15.721Z,96.50
2018-08-10T02:20:44.359Z,96.60
2018-08-10T02:23:12.945Z,96.70
2018-08-10T02:25:41.545Z,96.80
2018-08-10T02:28:10.076Z,96.90
2018-08-10T02:30:38.687Z,97.00
2018-08-10T02:33:07.377Z,97.20
2018-08-10T02:35:36.022Z,97.20
2018-08-10T02:38:04.652Z,97.20
2018-08-10T02:40:33.291Z,97.20
2018-08-10T02:43:01.830Z,97.40
2018-08-10T02:45:30.494Z,97.50
2018-08-10T02:47:59.115Z,97.30
2018-08-10T02:50:27.738Z,97.40
2018-08-10T02:52:56.413Z,97.30
2018-08-10T02:55:25.113Z,96.30
2018-08-10T02:57:53.692Z,96.40
2018-08-10T03:00:22.360Z,95.50
2018-08-10T03:02:50.940Z,95.50
2018-08-10T03:05:19.531Z,95.40
2018-08-10T03:07:48.145Z,95.40
2018-08-10T03:10:16.875Z,95.20
2018-08-10T03:12:45.437Z,94.90
2018-08-10T03:15:15.501Z,94.90
2018-08-10T03:17:44.721Z,95.00
2018-08-10T03:20:13.445Z,95.00
2018-08-10T03:22:42.158Z,95.00
2018-08-10T03:25:12.309Z,94.60
2018-08-10T03:27:40.945Z,93.60
2018-08-10T03:30:11.046Z,93.40
2018-08-10T03:32:39.763Z,93.20
2018-08-10T03:35:08.426Z,93.40
2018-08-10T03:37:37.566Z,93.40
2018-08-10T03:40:08.973Z,93.40
2018-08-10T03:42:37.535Z,93.70
2018-08-10T03:45:06.229Z,93.70
2018-08-10T03:47:34.835Z,93.60
2018-08-10T03:50:03.443Z,93.80
2018-08-10T03:52:32.095Z,94.00
2018-08-10T03:55:00.748Z,93.80
2018-08-10T03:57:29.414Z,93.80
2018-08-10T03:59:58.007Z,93.80
2018-08-10T04:02:26.695Z,93.90
2018-08-10T04:04:55.226Z,93.90
2018-08-10T04:07:23.918Z,93.80
2018-08-10T04:09:52.512Z,94.00
2018-08-10T04:12:21.142Z,93.80
2018-08-10T04:14:49.700Z,93.90
2018-08-10T04:17:23.757Z,94.10
2018-08-10T04:19:53.402Z,94.00
2018-08-10T04:22:22.783Z,94.20
2018-08-10T04:24:51.699Z,94.30
2018-08-10T04:27:20.387Z,94.60
2018-08-10T04:29:49.387Z,94.20
2018-08-10T04:32:17.986Z,94.50
2018-08-10T04:34:46.693Z,94.30
2018-08-10T04:37:15.305Z,94.30
2018-08-10T04:39:43.922Z,94.20
2018-08-10T04:42:12.615Z,94.20
2018-08-10T04:44:41.269Z,94.20
2018-08-10T04:47:09.909Z,94.20
2018-08-10T04:49:38.476Z,94.20
2018-08-10T04:52:07.231Z,94.20
2018-08-10T04:54:35.910Z,94.10
2018-08-10T04:57:04.605Z,94.40
2018-08-10T04:59:33.203Z,94.50
2018-08-10T05:02:01.843Z,94.30
2018-08-10T05:04:30.421Z,94.30
2018-08-10T05:06:59.028Z,94.20
2018-08-10T05:09:27.510Z,94.10
2018-08-10T05:11:56.116Z,94.70
2018-08-10T05:14:25.779Z,94.50
2018-08-10T05:16:54.404Z,94.70
2018-08-10T05:19:23.012Z,94.60
2018-08-10T05:21:51.632Z,94.60
2018-08-10T05:24:20.273Z,94.40
2018-08-10T05:26:49.131Z,94.70
2018-08-10T05:29:17.706Z,94.60
2018-08-10T05:31:46.333Z,94.50
2018-08-10T05:34:14.844Z,94.60
2018-08-10T05:36:43.493Z,94.60
2018-08-10T05:39:12.709Z,94.80
2018-08-10T05:41:41.545Z,94.80
2018-08-10T05:44:10.259Z,94.80
2018-08-10T05:46:38.830Z,94.90
2018-08-10T05:49:07.467Z,95.30
2018-08-10T05:51:36.055Z,95.00
2018-08-10T05:54:04.669Z,95.00
2018-08-10T05:56:33.201Z,95.00
2018-08-10T05:59:01.872Z,95.30
2018-08-10T06:01:30.516Z,94.90
2018-08-10T06:03:59.233Z,94.80
2018-08-10T06:06:27.740Z,94.60
2018-08-10T06:08:56.289Z,94.70
2018-08-10T06:11:24.882Z,94.60
2018-08-10T06:13:53.521Z,94.50
2018-08-10T06:16:22.133Z,94.40
2018-08-10T06:18:51.129Z,94.20
2018-08-10T06:21:19.727Z,94.50
2018-08-10T06:23:48.342Z,94.50
2018-08-10T06:26:16.934Z,94.60
2018-08-10T06:28:45.546Z,94.30
2018-08-10T06:31:14.091Z,94.10
2018-08-10T06:33:42.707Z,94.30
2018-08-10T06:36:11.301Z,94.60
2018-08-10T06:38:39.884Z,94.10
2018-08-10T06:41:08.465Z,94.10
2018-08-10T06:43:37.050Z,94.20
2018-08-10T06:46:05.940Z,94.20
2018-08-10T06:48:34.536Z,93.90
2018-08-10T06:51:03.147Z,93.90
2018-08-10T06:53:32.085Z,93.50
2018-08-10T06:56:00.714Z,93.00
2018-08-10T06:58:29.248Z,92.70
2018-08-10T07:00:57.811Z,92.50
2018-08-10T07:03:26.470Z,92.10
2018-08-10T07:05:55.078Z,91.70
2018-08-10T07:08:23.689Z,91.40
2018-08-10T07:10:52.272Z,91.40
2018-08-10T07:13:21.057Z,91.10
2018-08-10T07:15:50.107Z,90.90
2018-08-10T07:18:18.835Z,90.40
2018-08-10T07:20:47.697Z,89.30
2018-08-10T07:23:16.600Z,88.70
2018-08-10T07:25:45.380Z,87.50
2018-08-10T07:28:14.248Z,86.90
2018-08-10T07:30:43.084Z,85.70
2018-08-10T07:33:11.958Z,85.10
2018-08-10T07:35:40.813Z,83.50
2018-08-10T07:38:09.433Z,83.20
2018-08-10T07:40:37.950Z,82.60
2018-08-10T07:43:06.533Z,82.40
2018-08-10T07:45:35.131Z,83.30
2018-08-10T07:48:03.972Z,82.50
2018-08-10T07:50:32.574Z,83.50
2018-08-10T07:53:01.153Z,83.10
2018-08-10T07:55:29.902Z,82.80
2018-08-10T07:57:58.564Z,81.60
2018-08-10T08:00:27.148Z,79.10
2018-08-10T08:02:55.772Z,79.30
2018-08-10T08:05:24.414Z,78.20
2018-08-10T08:07:52.978Z,77.70
2018-08-10T08:10:21.698Z,78.00
2018-08-10T08:12:50.287Z,77.10
2018-08-10T08:15:18.838Z,76.60
2018-08-10T08:17:47.407Z,76.20
2018-08-10T08:21:07.627Z,75.00
2018-08-10T08:23:36.367Z,76.30
2018-08-10T08:26:05.165Z,76.20
2018-08-10T08:28:34.172Z,76.20
2018-08-10T08:31:03.774Z,75.50
2018-08-10T08:33:32.434Z,74.20
2018-08-10T08:36:02.401Z,73.60
2018-08-10T08:38:42.193Z,70.70
2018-08-10T08:41:11.161Z,69.70
2018-08-10T08:46:11.081Z,68.80
2018-08-10T08:48:41.435Z,68.80
2018-08-10T08:51:18.782Z,65.70
2018-08-10T08:53:47.427Z,64.50
2018-08-10T08:56:19.154Z,65.00
2018-08-10T08:58:49.099Z,65.40
2018-08-10T09:01:18.118Z,63.90
2018-08-10T09:05:01.670Z,64.50
2018-08-10T09:07:30.871Z,62.70
2018-08-10T09:10:00.175Z,62.60
2018-08-10T09:12:28.982Z,63.00
2018-08-10T09:15:12.666Z,62.90
2018-08-10T09:17:41.327Z,63.50
2018-08-10T09:20:10.703Z,62.40
2018-08-10T09:22:39.341Z,60.80
2018-08-10T09:25:15.908Z,61.20
2018-08-10T09:27:44.555Z,60.40
2018-08-10T09:30:15.536Z,59.10
2018-08-10T09:32:44.126Z,59.60
2018-08-10T09:35:13.583Z,58.50
2018-08-10T09:37:42.324Z,58.40
2018-08-10T09:40:16.225Z,57.90
2018-08-10T09:42:45.589Z,58.00
2018-08-10T09:45:15.112Z,57.50
2018-08-10T09:47:44.853Z,57.40
2018-08-10T09:50:15.378Z,57.10
2018-08-10T09:52:56.970Z,55.90
2018-08-10T09:55:31.601Z,54.80
2018-08-10T09:58:01.712Z,54.00
2018-08-10T10:00:35.561Z,53.40
2018-08-10T10:03:09.503Z,53.20
2018-08-10T10:05:38.029Z,54.10
2018-08-10T10:08:06.769Z,54.00
2018-08-10T10:10:35.470Z,54.00
2018-08-10T10:13:04.188Z,52.50
2018-08-10T10:15:32.793Z,52.00
2018-08-10T10:18:01.414Z,51.70
2018-08-10T10:20:30.045Z,50.80
2018-08-10T10:22:58.736Z,50.10
2018-08-10T10:25:27.347Z,49.90
2018-08-10T10:27:56.010Z,50.30
2018-08-10T10:30:24.653Z,48.80
2018-08-10T10:32:53.296Z,48.10
2018-08-10T10:35:21.911Z,48.00
2018-08-10T10:37:50.543Z,46.90
2018-08-10T10:40:19.117Z,46.50
2018-08-10T10:42:47.794Z,46.00
2018-08-10T10:45:16.680Z,44.80
2018-08-10T10:47:46.511Z,45.00
2018-08-10T10:50:15.656Z,45.10
2018-08-10T10:52:44.272Z,45.10
2018-08-10T10:55:13.035Z,45.70
2018-08-10T10:57:42.160Z,45.60
2018-08-10T11:00:14.534Z,46.80
2018-08-10T11:02:43.242Z,47.40
2018-08-10T11:05:11.949Z,47.80
2018-08-10T11:07:40.558Z,47.00
2018-08-10T11:10:10.695Z,47.00
2018-08-10T11:12:39.592Z,46.60
2018-08-10T11:15:09.295Z,46.70
2018-08-10T11:17:38.173Z,46.30
2018-08-10T11:20:08.185Z,46.10
2018-08-10T11:22:36.993Z,44.80
2018-08-10T11:25:06.705Z,44.10
2018-08-10T11:27:35.387Z,44.60
2018-08-10T11:30:05.359Z,44.60
2018-08-10T11:32:34.329Z,45.10
2018-08-10T11:35:03.378Z,44.70
2018-08-10T11:37:32.349Z,45.40
2018-08-10T11:40:00.988Z,45.00
2018-08-10T11:42:29.532Z,45.60
2018-08-10T11:44:58.350Z,45.10
2018-08-10T11:47:26.941Z,45.60
2018-08-10T11:49:55.616Z,45.40
2018-08-10T11:52:24.238Z,44.80
2018-08-10T11:54:52.824Z,44.80
2018-08-10T11:57:21.470Z,44.20
2018-08-10T11:59:50.067Z,44.30
2018-08-10T12:02:18.689Z,44.00
2018-08-10T12:04:47.255Z,43.20
2018-08-10T12:07:15.832Z,43.40
2018-08-10T12:09:44.447Z,43.90
2018-08-10T12:12:13.072Z,44.20
2018-08-10T12:14:41.785Z,44.00
2018-08-10T12:17:10.406Z,44.20
2018-08-10T12:19:38.935Z,44.90
2018-08-10T12:22:07.588Z,44.20
2018-08-10T12:24:36.620Z,44.40
2018-08-10T12:27:05.475Z,43.70
2018-08-10T12:29:34.073Z,44.50
2018-08-10T12:32:02.731Z,44.70
2018-08-10T12:34:31.515Z,45.10
2018-08-10T12:37:00.119Z,44.40
2018-08-10T12:39:28.739Z,45.00
2018-08-10T12:41:57.301Z,45.50
2018-08-10T12:44:25.902Z,45.70
2018-08-10T12:46:54.409Z,45.70
2018-08-10T12:49:23.003Z,45.10
2018-08-10T12:51:51.682Z,45.30
2018-08-10T12:54:20.298Z,45.20
2018-08-10T12:56:48.907Z,44.80
2018-08-10T12:59:17.507Z,44.10
2018-08-10T13:01:46.150Z,43.70
2018-08-10T13:04:14.747Z,43.50
2018-08-10T13:06:43.287Z,43.50
2018-08-10T13:09:13.029Z,43.80
2018-08-10T13:11:41.676Z,44.60
2018-08-10T13:14:10.397Z,44.40
2018-08-10T13:16:38.981Z,44.00
2018-08-10T13:19:07.782Z,44.10
2018-08-10T13:21:36.422Z,42.90
2018-08-10T13:24:05.181Z,43.20
2018-08-10T13:26:33.833Z,43.60
2018-08-10T13:29:02.447Z,43.00
2018-08-10T13:31:31.102Z,43.10
2018-08-10T13:33:59.772Z,43.20
2018-08-10T13:36:28.417Z,43.20
2018-08-10T13:38:57.033Z,42.30
2018-08-10T13:41:28.948Z,42.30
2018-08-10T13:44:12.513Z,42.50
2018-08-10T13:46:43.214Z,41.50
2018-08-10T13:49:12.253Z,40.90
2018-08-10T13:51:40.871Z,40.50
2018-08-10T13:54:09.876Z,39.90
2018-08-10T13:56:38.691Z,40.60
2018-08-10T13:59:07.233Z,40.40
2018-08-10T14:01:35.823Z,39.60
2018-08-10T14:04:04.466Z,40.00
2018-08-10T14:06:33.252Z,39.80
2018-08-10T14:09:01.798Z,39.80
2018-08-10T14:11:30.441Z,40.60
2018-08-10T14:13:59.000Z,40.50
2018-08-10T14:16:27.607Z,41.30
2018-08-10T14:18:56.161Z,42.00
2018-08-10T14:21:24.796Z,42.40
2018-08-10T14:23:53.374Z,42.80
2018-08-10T14:26:22.073Z,43.10
2018-08-10T14:28:50.762Z,43.20
2018-08-10T14:31:19.333Z,43.00
2018-08-10T14:33:47.926Z,43.20
2018-08-10T14:36:16.585Z,42.60
2018-08-10T14:38:45.238Z,42.50
2018-08-10T14:41:14.173Z,42.40
2018-08-10T14:43:42.741Z,42.60
2018-08-10T14:46:11.320Z,42.30
2018-08-10T14:48:40.039Z,42.30
2018-08-10T14:51:08.696Z,42.70
2018-08-10T14:53:37.344Z,43.50
2018-08-10T14:56:06.475Z,43.40
2018-08-10T14:58:35.089Z,43.60
2018-08-10T15:01:03.872Z,43.80
2018-08-10T15:03:32.505Z,43.20
2018-08-10T15:06:01.149Z,43.80
2018-08-10T15:08:29.809Z,44.70
2018-08-10T15:10:58.373Z,44.90
2018-08-10T15:13:26.982Z,44.20
2018-08-10T15:15:55.631Z,44.10
2018-08-10T15:18:24.336Z,44.80
2018-08-10T15:20:53.135Z,44.90
2018-08-10T15:23:21.923Z,44.60
2018-08-10T15:25:50.523Z,44.40
2018-08-10T15:28:21.124Z,43.70
2018-08-10T15:30:49.833Z,43.30
2018-08-10T15:33:18.469Z,43.00
2018-08-10T15:35:47.078Z,43.40
2018-08-10T15:38:15.746Z,43.40
2018-08-10T15:40:44.353Z,43.50
2018-08-10T15:43:13.009Z,42.80
2018-08-10T15:45:41.623Z,43.50
2018-08-10T15:48:11.128Z,42.70
2018-08-10T15:50:39.811Z,42.90
2018-08-10T15:53:08.474Z,42.20
2018-08-10T15:55:37.042Z,42.90
2018-08-10T15:58:05.790Z,42.50
2018-08-10T16:00:34.409Z,42.30
2018-08-10T16:03:03.080Z,42.30
2018-08-10T16:05:31.609Z,41.00
2018-08-10T16:08:00.295Z,41.00
2018-08-10T16:10:28.910Z,39.60
2018-08-10T16:12:57.522Z,38.90
2018-08-10T16:15:26.155Z,37.00
2018-08-10T16:17:54.848Z,36.60
2018-08-10T16:20:23.557Z,35.20
2018-08-10T16:22:52.241Z,33.50
2018-08-10T16:25:20.924Z,32.10
2018-08-10T16:27:49.662Z,31.80
2018-08-10T16:30:18.412Z,31.80
2018-08-10T16:32:47.314Z,33.80
2018-08-10T16:35:16.420Z,33.20
2018-08-10T16:37:46.071Z,32.80
2018-08-10T16:40:15.945Z,31.90
2018-08-10T16:42:44.696Z,33.20
2018-08-10T16:45:14.001Z,33.40
2018-08-10T16:47:42.785Z,33.30
2018-08-10T16:50:15.369Z,32.70
2018-08-10T16:52:44.633Z,32.60
2018-08-10T16:55:15.100Z,32.30
2018-08-10T16:57:44.519Z,32.00
2018-08-10T17:00:19.350Z,32.40
2018-08-10T17:02:48.339Z,32.40
2018-08-10T17:05:17.086Z,33.10
2018-08-10T17:07:45.837Z,32.40
2018-08-10T17:10:14.521Z,32.30
2018-08-10T17:12:44.350Z,33.00
2018-08-10T17:15:15.585Z,33.50
2018-08-10T17:17:45.035Z,33.20
2018-08-10T17:20:14.158Z,33.30
2018-08-10T17:22:43.758Z,33.70
2018-08-10T17:25:14.257Z,35.00
2018-08-10T17:27:42.917Z,35.40
2018-08-10T17:30:13.445Z,35.90
2018-08-10T17:32:42.107Z,36.50
2018-08-10T17:35:12.011Z,37.40
2018-08-10T17:37:41.540Z,38.70
2018-08-10T17:40:10.595Z,38.90
2018-08-10T17:42:39.347Z,39.10
2018-08-10T17:45:12.253Z,40.20
2018-08-10T17:47:40.902Z,41.20
2018-08-10T17:50:12.719Z,42.30
2018-08-10T17:52:46.102Z,43.40
2018-08-10T17:55:15.800Z,44.20
2018-08-10T17:57:44.750Z,45.00
2018-08-10T18:00:16.047Z,44.80
2018-08-10T18:02:45.284Z,46.20
2018-08-10T18:05:15.190Z,47.50
2018-08-10T18:07:44.323Z,47.90
2018-08-10T18:10:14.192Z,48.30
2018-08-10T18:12:43.859Z,49.30
2018-08-10T18:15:15.916Z,50.50
2018-08-10T18:17:45.033Z,50.80
2018-08-10T18:20:16.593Z,52.00
2018-08-10T18:22:46.656Z,53.30
2018-08-10T18:25:16.348Z,53.50
2018-08-10T18:27:45.027Z,53.40
2018-08-10T18:30:15.871Z,53.50
2018-08-10T18:32:44.929Z,54.30
2018-08-10T18:35:13.619Z,55.40
2018-08-10T18:37:43.233Z,55.20
2018-08-10T18:40:13.328Z,54.40
2018-08-10T18:42:42.901Z,54.30
2018-08-10T18:45:14.154Z,54.60
2018-08-10T18:47:42.837Z,55.30
2018-08-10T18:50:13.128Z,57.10
2018-08-10T18:52:41.795Z,56.60
2018-08-10T18:55:11.989Z,55.90
2018-08-10T18:57:40.715Z,57.30
2018-08-10T19:00:16.052Z,58.20
2018-08-10T19:02:45.064Z,59.80
2018-08-10T19:05:14.609Z,62.30
2018-08-10T19:07:44.419Z,64.40
2018-08-10T19:10:15.122Z,65.50
2018-08-10T19:12:43.688Z,66.70
2018-08-10T19:15:13.217Z,66.40
2018-08-10T19:17:42.020Z,67.10
2018-08-10T19:20:11.524Z,64.60
2018-08-10T19:22:40.195Z,64.00
2018-08-10T19:25:10.577Z,66.20
2018-08-10T19:27:39.393Z,66.90
2018-08-10T19:30:10.183Z,67.00
2018-08-10T19:32:38.741Z,66.60
2018-08-10T19:35:07.868Z,68.20
2018-08-10T19:37:36.709Z,69.60
2018-08-10T19:40:07.371Z,69.40
2018-08-10T19:42:35.941Z,67.50
2018-08-10T19:45:05.948Z,66.80
2018-08-10T19:47:34.968Z,66.50
2018-08-10T19:50:03.777Z,65.50
2018-08-10T19:52:32.406Z,67.10
2018-08-10T19:55:01.182Z,66.10
2018-08-10T19:57:29.871Z,66.00
2018-08-10T19:59:58.522Z,66.00
2018-08-10T20:02:27.271Z,66.30
2018-08-10T20:04:56.006Z,66.30
2018-08-10T20:07:24.652Z,67.20
2018-08-10T20:09:53.339Z,68.20
2018-08-10T20:12:21.928Z,69.20
2018-08-10T20:14:50.572Z,69.80
2018-08-10T20:17:19.233Z,70.80
2018-08-10T20:19:47.853Z,70.70
2018-08-10T20:22:18.371Z,71.90
2018-08-10T20:24:48.536Z,72.10
2018-08-10T20:27:17.213Z,73.20
2018-08-10T20:29:45.820Z,73.20
2018-08-10T20:32:14.548Z,74.20
2018-08-10T20:34:43.161Z,75.50
2018-08-10T20:37:11.739Z,75.90
2018-08-10T20:39:40.399Z,77.30
2018-08-10T20:42:09.706Z,78.30
2018-08-10T20:44:38.347Z,78.70
2018-08-10T20:47:06.998Z,79.30
2018-08-10T20:49:35.696Z,80.50
2018-08-10T20:52:04.345Z,80.70
2018-08-10T20:54:32.980Z,81.90
2018-08-10T20:57:01.516Z,84.20
2018-08-10T20:59:30.229Z,85.80
2018-08-10T21:01:58.836Z,86.50
2018-08-10T21:04:27.436Z,87.00
2018-08-10T21:06:56.032Z,87.40
2018-08-10T21:09:24.596Z,87.70
2018-08-10T21:11:53.292Z,88.30
2018-08-10T21:14:21.869Z,88.90
2018-08-10T21:16:50.482Z,89.80
2018-08-10T21:19:19.016Z,90.30
2018-08-10T21:21:47.742Z,90.60
2018-08-10T21:24:16.300Z,91.20
2018-08-10T21:26:44.996Z,91.50
2018-08-10T21:29:13.548Z,92.00
2018-08-10T21:31:42.144Z,92.60
2018-08-10T21:34:10.724Z,92.70
2018-08-10T21:36:39.619Z,93.10
2018-08-10T21:39:10.533Z,93.10
2018-08-10T21:41:39.186Z,93.40
2018-08-10T21:44:07.999Z,93.80
2018-08-10T21:46:37.012Z,93.60
2018-08-10T21:49:05.848Z,93.80
2018-08-10T21:51:34.494Z,94.10
2018-08-10T21:54:03.128Z,94.70
2018-08-10T21:56:31.751Z,95.00
2018-08-10T21:59:00.436Z,95.20
2018-08-10T22:01:29.066Z,95.40
2018-08-10T22:03:57.614Z,95.60
2018-08-10T22:06:26.215Z,95.60
2018-08-10T22:08:54.798Z,95.90
2018-08-10T22:11:23.425Z,96.70
2018-08-10T22:13:57.204Z,96.70
2018-08-10T22:16:31.100Z,97.00
2018-08-10T22:19:04.963Z,97.30
2018-08-10T22:21:33.548Z,97.50
2018-08-10T22:24:03.181Z,97.90
2018-08-10T22:26:31.856Z,98.20
2018-08-10T22:29:00.513Z,98.40
2018-08-10T22:31:29.174Z,98.70
2018-08-10T22:33:57.835Z,99.00
2018-08-10T22:36:26.478Z,99.40
2018-08-10T22:38:54.994Z,99.50
2018-08-10T22:41:23.636Z,99.40
2018-08-10T22:43:52.241Z,99.40
2018-08-10T22:46:20.887Z,99.50
2018-08-10T22:48:49.539Z,99.70
2018-08-10T22:51:18.104Z,99.60
2018-08-10T22:53:46.649Z,99.50
2018-08-10T22:56:15.360Z,99.90
2018-08-10T22:58:43.881Z,99.90
2018-08-10T23:01:12.538Z,99.90
2018-08-10T23:03:41.116Z,99.90
2018-08-10T23:06:09.916Z,99.90
2018-08-10T23:08:38.716Z,99.90
2018-08-10T23:11:07.370Z,99.90
2018-08-10T23:13:36.100Z,99.90
2018-08-10T23:16:04.716Z,99.90
2018-08-10T23:18:33.377Z,99.90
2018-08-10T23:21:02.062Z,99.90
2018-08-10T23:23:30.677Z,99.90
2018-08-10T23:25:59.185Z,99.90
2018-08-10T23:28:27.864Z,99.90
2018-08-10T23:30:56.554Z,99.90
2018-08-10T23:33:25.144Z,99.90
2018-08-10T23:35:53.763Z,99.90
2018-08-10T23:38:22.412Z,99.90
2018-08-10T23:40:51.057Z,99.90
2018-08-10T23:43:19.691Z,99.90
2018-08-10T23:45:48.310Z,99.90
2018-08-10T23:48:16.953Z,99.90
2018-08-10T23:50:45.599Z,99.90
2018-08-10T23:53:14.220Z,99.90
2018-08-10T23:55:42.790Z,99.90
2018-08-10T23:58:11.597Z,99.90
